createdAt,value
2019-03-29T00:02:12.834Z,70.88
2019-03-29T00:04:42.812Z,70.87
2019-03-29T00:07:12.850Z,70.96
2019-03-29T00:09:42.866Z,71.02
2019-03-29T00:12:13.921Z,71.07
2019-03-29T00:14:43.957Z,71.16
2019-03-29T00:17:13.932Z,71.18
2019-03-29T00:19:43.870Z,71.21
2019-03-29T00:22:13.817Z,71.34
2019-03-29T00:24:43.931Z,71.40
2019-03-29T00:27:23.529Z,71.50
2019-03-29T00:29:53.545Z,71.58
2019-03-29T00:32:23.680Z,71.70
2019-03-29T00:34:53.664Z,71.86
2019-03-29T00:37:23.647Z,71.95
2019-03-29T00:39:53.583Z,72.06
2019-03-29T00:42:23.529Z,72.13
2019-03-29T00:44:53.476Z,72.30
2019-03-29T00:47:44.200Z,72.44
2019-03-29T00:50:24.659Z,72.59
2019-03-29T00:53:09.015Z,72.60
2019-03-29T00:55:39.235Z,72.55
2019-03-29T00:58:09.336Z,72.43
2019-03-29T01:00:39.352Z,72.37
2019-03-29T01:03:10.892Z,72.20
2019-03-29T01:05:41.456Z,71.94
2019-03-29T01:08:50.410Z,71.43
2019-03-29T01:11:20.373Z,71.24
2019-03-29T01:13:51.191Z,70.99
2019-03-29T01:18:57.344Z,70.30
2019-03-29T01:21:37.734Z,69.59
2019-03-29T01:24:08.075Z,69.10
2019-03-29T01:29:27.015Z,68.10
2019-03-29T01:31:57.046Z,67.62
2019-03-29T01:34:26.938Z,67.19
2019-03-29T01:36:56.944Z,66.31
2019-03-29T01:39:29.881Z,65.95
2019-03-29T01:41:59.864Z,65.57
2019-03-29T01:44:29.886Z,65.59
2019-03-29T01:47:18.581Z,65.46
2019-03-29T01:52:31.639Z,65.08
2019-03-29T01:55:02.865Z,65.08
2019-03-29T01:57:43.316Z,65.09
2019-03-29T02:05:50.371Z,65.12
2019-03-29T02:08:35.905Z,65.25
2019-03-29T02:11:02.964Z,65.51
2019-03-29T02:13:33.011Z,65.58
2019-03-29T02:18:39.269Z,66.07
2019-03-29T02:21:20.492Z,66.19
2019-03-29T02:23:50.849Z,66.37
2019-03-29T02:26:39.561Z,66.68
2019-03-29T02:29:10.950Z,66.91
2019-03-29T02:31:53.138Z,67.06
2019-03-29T02:34:34.841Z,67.26
2019-03-29T02:37:04.986Z,67.35
2019-03-29T02:39:34.951Z,67.70
2019-03-29T02:42:23.631Z,67.96
2019-03-29T02:45:12.297Z,68.16
2019-03-29T02:47:51.342Z,68.36
2019-03-29T02:50:21.257Z,68.67
2019-03-29T02:52:53.743Z,68.90
2019-03-29T02:55:23.723Z,69.19
2019-03-29T02:57:53.690Z,69.46
2019-03-29T03:00:23.860Z,69.65
2019-03-29T03:06:18.468Z,70.07
2019-03-29T03:08:51.584Z,70.28
2019-03-29T03:11:40.472Z,70.57
2019-03-29T03:14:20.962Z,70.80
2019-03-29T03:16:50.917Z,70.97
2019-03-29T03:19:20.846Z,71.21
2019-03-29T03:21:50.907Z,71.50
2019-03-29T03:24:20.938Z,71.81
2019-03-29T03:26:50.839Z,72.07
2019-03-29T03:29:20.792Z,72.28
2019-03-29T03:31:50.841Z,72.43
2019-03-29T03:34:20.805Z,72.57
2019-03-29T03:36:50.813Z,72.68
2019-03-29T03:39:31.332Z,72.74
2019-03-29T03:41:52.829Z,72.82
2019-03-29T03:44:22.807Z,73.00
2019-03-29T03:46:52.810Z,73.18
2019-03-29T03:51:57.859Z,73.49
2019-03-29T03:54:38.610Z,73.57
2019-03-29T03:57:09.137Z,73.56
2019-03-29T03:59:59.643Z,73.65
2019-03-29T04:02:29.578Z,73.67
2019-03-29T04:05:11.628Z,73.82
2019-03-29T04:07:41.591Z,73.94
2019-03-29T04:10:11.715Z,74.07
2019-03-29T04:12:41.712Z,74.18
2019-03-29T04:15:12.400Z,74.29
2019-03-29T04:17:42.326Z,74.34
2019-03-29T04:23:00.864Z,74.23
2019-03-29T04:25:31.055Z,74.32
2019-03-29T04:28:04.098Z,74.24
2019-03-29T04:30:34.272Z,74.23
2019-03-29T04:33:10.788Z,74.08
2019-03-29T04:35:38.030Z,74.12
2019-03-29T04:38:08.574Z,74.14
2019-03-29T04:40:57.247Z,74.13
2019-03-29T04:43:27.196Z,74.09
2019-03-29T04:45:57.226Z,73.86
2019-03-29T04:48:27.139Z,73.60
2019-03-29T04:50:57.201Z,73.40
2019-03-29T04:53:46.065Z,73.15
2019-03-29T04:56:27.324Z,72.92
2019-03-29T04:58:57.341Z,72.55
2019-03-29T05:01:27.276Z,72.31
2019-03-29T05:06:33.494Z,71.81
2019-03-29T05:09:14.474Z,71.67
2019-03-29T05:11:44.795Z,71.52
2019-03-29T05:14:14.786Z,71.37
2019-03-29T05:17:03.604Z,71.24
2019-03-29T05:19:33.652Z,71.09
2019-03-29T05:22:03.665Z,70.92
2019-03-29T05:24:33.681Z,70.85
2019-03-29T05:27:03.674Z,70.78
2019-03-29T05:29:33.720Z,70.67
2019-03-29T05:32:03.992Z,70.60
2019-03-29T05:34:34.182Z,70.54
2019-03-29T05:42:28.663Z,70.06
2019-03-29T05:44:58.778Z,69.87
2019-03-29T05:47:28.819Z,69.82
2019-03-29T05:49:58.730Z,69.84
2019-03-29T05:52:28.799Z,69.56
2019-03-29T05:54:58.743Z,69.40
2019-03-29T05:57:31.302Z,69.41
2019-03-29T06:02:36.651Z,69.08
2019-03-29T06:07:42.786Z,68.94
2019-03-29T06:10:26.656Z,68.87
2019-03-29T06:12:56.843Z,68.76
2019-03-29T06:15:26.810Z,68.57
2019-03-29T06:21:27.703Z,68.28
2019-03-29T06:23:57.675Z,68.23
2019-03-29T06:26:52.865Z,68.23
2019-03-29T06:29:22.870Z,67.94
2019-03-29T06:31:52.796Z,67.62
2019-03-29T06:34:22.753Z,67.73
2019-03-29T06:37:12.857Z,67.53
2019-03-29T06:42:38.730Z,67.51
2019-03-29T06:45:29.091Z,67.45
2019-03-29T06:50:34.765Z,67.18
2019-03-29T06:55:40.454Z,66.92
2019-03-29T06:58:21.034Z,66.94
2019-03-29T07:00:50.985Z,66.83
2019-03-29T07:03:20.964Z,66.78
2019-03-29T07:05:50.915Z,66.83
2019-03-29T07:08:20.846Z,66.76
2019-03-29T07:10:52.637Z,66.78
2019-03-29T07:16:20.376Z,66.88
2019-03-29T07:19:09.169Z,66.97
2019-03-29T07:21:39.454Z,67.33
2019-03-29T07:24:09.606Z,67.37
2019-03-29T07:26:39.743Z,67.37
2019-03-29T07:29:09.804Z,67.47
2019-03-29T07:31:39.756Z,67.40
2019-03-29T07:34:09.928Z,67.45
2019-03-29T07:36:40.082Z,67.43
2019-03-29T07:39:10.084Z,67.37
2019-03-29T07:41:39.967Z,67.31
2019-03-29T07:44:10.098Z,67.47
2019-03-29T07:46:40.149Z,67.07
2019-03-29T07:49:10.097Z,67.10
2019-03-29T07:51:40.160Z,66.95
2019-03-29T07:54:10.172Z,66.92
2019-03-29T07:56:40.119Z,66.61
2019-03-29T07:59:23.337Z,66.49
2019-03-29T08:02:04.500Z,66.29
2019-03-29T08:04:46.642Z,65.89
2019-03-29T08:07:27.119Z,65.79
2019-03-29T08:09:48.862Z,65.73
2019-03-29T08:12:19.046Z,65.54
2019-03-29T08:14:49.354Z,65.28
2019-03-29T08:17:19.687Z,65.10
2019-03-29T08:20:09.415Z,64.96
2019-03-29T08:22:22.401Z,64.86
2019-03-29T08:24:52.478Z,64.41
2019-03-29T08:27:22.432Z,63.90
2019-03-29T08:29:52.456Z,63.42
2019-03-29T08:32:22.431Z,63.24
2019-03-29T08:34:52.381Z,63.18
2019-03-29T08:37:22.516Z,62.61
2019-03-29T08:39:52.466Z,62.65
2019-03-29T08:42:22.431Z,62.83
2019-03-29T08:44:52.437Z,62.19
2019-03-29T08:47:22.373Z,61.98
2019-03-29T08:49:52.321Z,61.97
2019-03-29T08:52:22.663Z,62.22
2019-03-29T08:54:52.609Z,61.91
2019-03-29T08:57:22.597Z,61.79
2019-03-29T08:59:52.562Z,61.38
2019-03-29T09:02:25.124Z,61.25
2019-03-29T09:04:54.228Z,61.36
2019-03-29T09:07:27.939Z,61.15
2019-03-29T09:10:34.505Z,60.24
2019-03-29T09:13:04.860Z,60.15
2019-03-29T09:15:34.900Z,59.77
2019-03-29T09:18:25.873Z,59.86
2019-03-29T09:21:06.982Z,60.13
2019-03-29T09:23:37.209Z,60.36
2019-03-29T09:26:07.419Z,59.62
2019-03-29T09:28:37.374Z,59.43
2019-03-29T09:31:07.471Z,59.40
2019-03-29T09:36:28.191Z,59.90
2019-03-29T09:38:58.210Z,59.75
2019-03-29T09:41:28.148Z,59.20
2019-03-29T09:43:58.115Z,58.60
2019-03-29T09:46:28.046Z,58.21
2019-03-29T09:48:58.094Z,58.15
2019-03-29T09:51:28.083Z,57.46
2019-03-29T09:53:58.109Z,56.90
2019-03-29T09:56:38.569Z,56.28
2019-03-29T09:58:59.853Z,56.71
2019-03-29T10:01:29.855Z,56.16
2019-03-29T10:04:06.733Z,55.42
2019-03-29T10:06:36.831Z,55.96
2019-03-29T10:09:07.991Z,56.24
2019-03-29T10:11:37.961Z,56.23
2019-03-29T10:14:07.997Z,55.55
2019-03-29T10:19:26.968Z,56.11
2019-03-29T10:21:57.889Z,55.83
2019-03-29T10:24:27.841Z,56.66
2019-03-29T10:26:57.871Z,57.46
2019-03-29T10:29:27.885Z,57.39
2019-03-29T10:31:57.894Z,57.50
2019-03-29T10:34:27.919Z,56.91
2019-03-29T10:36:57.956Z,56.68
2019-03-29T10:39:28.012Z,56.45
2019-03-29T10:44:33.653Z,54.79
2019-03-29T10:47:03.776Z,54.70
2019-03-29T10:49:33.762Z,54.96
2019-03-29T10:52:03.734Z,55.59
2019-03-29T10:54:33.786Z,55.09
2019-03-29T10:57:03.929Z,54.78
2019-03-29T10:59:54.039Z,53.98
2019-03-29T11:02:23.970Z,53.46
2019-03-29T11:04:53.910Z,53.03
2019-03-29T11:07:24.024Z,52.74
2019-03-29T11:09:53.974Z,53.23
2019-03-29T11:12:23.925Z,52.74
2019-03-29T11:14:54.032Z,52.49
2019-03-29T11:17:23.961Z,52.71
2019-03-29T11:19:53.890Z,52.64
2019-03-29T11:22:34.808Z,52.72
2019-03-29T11:28:18.222Z,51.05
2019-03-29T11:30:48.328Z,50.36
2019-03-29T11:33:18.271Z,49.60
2019-03-29T11:35:48.294Z,49.56
2019-03-29T11:38:18.316Z,49.90
2019-03-29T11:40:48.334Z,49.22
2019-03-29T11:51:18.338Z,49.66
2019-03-29T11:53:36.670Z,49.98
2019-03-29T11:56:06.608Z,49.39
2019-03-29T11:58:36.566Z,49.01
2019-03-29T12:03:41.710Z,49.36
2019-03-29T12:06:11.880Z,48.85
2019-03-29T12:08:46.108Z,48.47
2019-03-29T12:11:16.310Z,48.57
2019-03-29T12:13:46.759Z,48.04
2019-03-29T12:16:16.930Z,47.53
2019-03-29T12:18:47.063Z,47.66
2019-03-29T12:21:17.224Z,47.65
2019-03-29T12:23:57.855Z,47.22
2019-03-29T12:26:27.917Z,47.67
2019-03-29T12:28:57.902Z,47.62
2019-03-29T12:31:27.884Z,47.39
2019-03-29T12:33:57.854Z,47.40
2019-03-29T12:36:27.857Z,47.70
2019-03-29T12:38:57.927Z,47.90
2019-03-29T12:41:27.900Z,46.89
2019-03-29T12:43:57.833Z,46.93
2019-03-29T12:46:27.834Z,47.19
2019-03-29T12:48:57.758Z,46.32
2019-03-29T12:51:47.108Z,46.51
2019-03-29T12:54:28.556Z,47.05
2019-03-29T12:57:06.928Z,46.82
2019-03-29T12:59:37.437Z,46.30
2019-03-29T13:02:07.420Z,46.23
2019-03-29T13:04:37.371Z,45.71
2019-03-29T13:07:07.350Z,45.74
2019-03-29T13:09:39.754Z,45.60
2019-03-29T13:12:09.128Z,45.23
2019-03-29T13:14:39.275Z,45.17
2019-03-29T13:19:46.649Z,44.50
2019-03-29T13:22:17.014Z,45.43
2019-03-29T13:24:47.084Z,45.11
2019-03-29T13:27:17.049Z,44.53
2019-03-29T13:29:47.082Z,44.12
2019-03-29T13:32:36.024Z,43.83
2019-03-29T13:35:17.004Z,43.88
2019-03-29T13:37:47.445Z,43.94
2019-03-29T13:40:17.491Z,43.69
2019-03-29T13:42:56.948Z,44.07
2019-03-29T13:45:28.021Z,43.78
2019-03-29T13:47:58.942Z,43.16
2019-03-29T13:50:47.832Z,42.99
2019-03-29T13:53:28.819Z,43.23
2019-03-29T13:59:16.938Z,43.02
2019-03-29T14:01:46.994Z,43.38
2019-03-29T14:04:35.912Z,42.97
2019-03-29T14:10:00.574Z,42.28
2019-03-29T14:12:33.737Z,42.53
2019-03-29T14:15:03.824Z,41.72
2019-03-29T14:20:11.599Z,41.96
2019-03-29T14:22:52.601Z,41.74
2019-03-29T14:28:17.111Z,41.87
2019-03-29T14:30:47.088Z,41.66
2019-03-29T14:33:17.032Z,41.74
2019-03-29T14:35:47.084Z,41.52
2019-03-29T14:38:17.069Z,41.92
2019-03-29T14:40:47.060Z,41.91
2019-03-29T14:43:17.079Z,41.62
2019-03-29T14:45:49.068Z,41.88
2019-03-29T14:48:19.017Z,42.02
2019-03-29T14:50:49.338Z,42.23
2019-03-29T14:53:19.418Z,42.31
2019-03-29T14:58:38.515Z,40.52
2019-03-29T15:01:16.740Z,40.82
2019-03-29T15:07:02.737Z,40.89
2019-03-29T15:12:11.138Z,41.57
2019-03-29T15:17:25.690Z,41.97
2019-03-29T15:19:55.625Z,42.05
2019-03-29T15:22:25.752Z,41.70
2019-03-29T15:27:31.140Z,41.23
2019-03-29T15:30:15.393Z,41.69
2019-03-29T15:32:45.377Z,41.75
2019-03-29T15:35:15.497Z,41.69
2019-03-29T15:37:45.596Z,41.50
2019-03-29T15:43:32.734Z,42.20
2019-03-29T15:46:02.769Z,41.56
2019-03-29T15:48:32.889Z,41.55
2019-03-29T15:51:03.072Z,41.40
2019-03-29T15:53:33.857Z,41.32
2019-03-29T15:56:04.104Z,41.36
2019-03-29T15:58:34.354Z,41.71
2019-03-29T16:01:24.731Z,42.17
2019-03-29T16:03:54.713Z,42.47
2019-03-29T16:06:24.704Z,42.74
2019-03-29T16:08:54.677Z,43.06
2019-03-29T16:16:36.735Z,43.83
2019-03-29T16:19:06.921Z,43.74
2019-03-29T16:21:37.021Z,43.17
2019-03-29T16:24:07.067Z,42.86
2019-03-29T16:26:37.103Z,42.16
2019-03-29T16:29:07.064Z,41.91
2019-03-29T16:31:37.804Z,41.33
2019-03-29T16:34:07.883Z,41.22
2019-03-29T16:36:37.935Z,41.05
2019-03-29T16:39:28.906Z,41.35
2019-03-29T16:41:59.033Z,41.38
2019-03-29T16:44:29.057Z,41.64
2019-03-29T16:49:38.432Z,41.45
2019-03-29T16:52:08.441Z,41.32
2019-03-29T16:54:38.410Z,41.23
2019-03-29T16:57:08.361Z,41.46
2019-03-29T16:59:38.364Z,41.96
2019-03-29T17:02:08.358Z,42.90
2019-03-29T17:04:38.322Z,43.90
2019-03-29T17:07:08.477Z,44.82
2019-03-29T17:12:28.196Z,46.40
2019-03-29T17:14:58.155Z,47.10
2019-03-29T17:17:28.759Z,47.79
2019-03-29T17:22:34.945Z,48.92
2019-03-29T17:25:15.338Z,49.45
2019-03-29T17:36:01.276Z,51.40
2019-03-29T17:38:31.860Z,51.86
2019-03-29T17:41:01.899Z,52.33
2019-03-29T17:43:31.991Z,52.79
2019-03-29T17:46:15.088Z,53.15
2019-03-29T17:48:35.361Z,53.43
2019-03-29T17:54:01.588Z,54.05
2019-03-29T17:56:31.811Z,54.52
2019-03-29T17:59:01.831Z,54.81
2019-03-29T18:01:31.877Z,55.11
2019-03-29T18:04:01.899Z,55.26
2019-03-29T18:06:32.119Z,55.50
2019-03-29T18:11:38.487Z,55.62
2019-03-29T18:14:08.533Z,55.68
2019-03-29T18:16:58.814Z,55.86
2019-03-29T18:19:28.829Z,55.75
2019-03-29T18:21:58.802Z,55.44
2019-03-29T18:24:28.775Z,55.37
2019-03-29T18:27:09.799Z,55.08
2019-03-29T18:29:40.003Z,55.08
2019-03-29T18:32:29.372Z,54.89
2019-03-29T18:34:59.508Z,54.98
2019-03-29T18:37:29.898Z,54.97
2019-03-29T18:45:32.311Z,55.09
2019-03-29T18:48:02.437Z,54.97
2019-03-29T18:50:32.372Z,54.90
2019-03-29T18:53:02.405Z,54.84
2019-03-29T18:55:32.413Z,54.83
2019-03-29T18:58:05.745Z,54.88
2019-03-29T19:03:28.332Z,54.62
2019-03-29T19:08:52.888Z,53.75
2019-03-29T19:11:22.901Z,53.75
2019-03-29T19:13:53.561Z,53.64
2019-03-29T19:16:23.532Z,53.59
2019-03-29T19:18:53.510Z,53.74
2019-03-29T19:21:25.729Z,53.71
2019-03-29T19:23:55.117Z,53.45
2019-03-29T19:26:25.056Z,53.16
2019-03-29T19:28:55.419Z,52.92
2019-03-29T19:31:25.454Z,52.72
2019-03-29T19:33:55.441Z,52.63
2019-03-29T19:36:25.367Z,52.52
2019-03-29T19:38:55.425Z,52.57
2019-03-29T19:41:25.366Z,52.65
2019-03-29T19:43:55.308Z,52.77
2019-03-29T19:46:25.271Z,53.05
2019-03-29T19:48:55.249Z,53.22
2019-03-29T19:51:25.216Z,53.45
2019-03-29T19:54:06.817Z,53.69
2019-03-29T19:59:33.419Z,54.46
2019-03-29T20:02:03.951Z,54.93
2019-03-29T20:04:33.975Z,55.46
2019-03-29T20:07:22.681Z,56.15
2019-03-29T20:09:52.870Z,56.56
2019-03-29T20:12:25.153Z,56.91
2019-03-29T20:14:54.551Z,57.41
2019-03-29T20:20:40.306Z,58.29
2019-03-29T20:23:21.456Z,59.05
2019-03-29T20:25:51.441Z,59.57
2019-03-29T20:28:21.375Z,60.10
2019-03-29T20:30:51.599Z,60.55
2019-03-29T20:33:21.648Z,61.09
2019-03-29T20:35:51.599Z,61.52
2019-03-29T20:38:21.522Z,61.70
2019-03-29T20:40:51.515Z,62.09
2019-03-29T20:43:21.456Z,62.22
2019-03-29T20:45:51.415Z,62.41
2019-03-29T20:48:21.517Z,62.51
2019-03-29T20:50:51.462Z,62.67
2019-03-29T20:53:21.387Z,62.84
2019-03-29T20:55:51.336Z,62.92
2019-03-29T20:58:21.294Z,62.90
2019-03-29T21:00:51.200Z,62.91
2019-03-29T21:03:39.904Z,62.98
2019-03-29T21:09:15.059Z,63.40
2019-03-29T21:11:45.289Z,63.52
2019-03-29T21:14:26.114Z,63.62
2019-03-29T21:16:56.071Z,63.68
2019-03-29T21:19:26.025Z,63.79
2019-03-29T21:21:56.040Z,63.76
2019-03-29T21:24:26.059Z,63.90
2019-03-29T21:26:55.984Z,64.02
2019-03-29T21:29:25.917Z,64.17
2019-03-29T21:31:55.850Z,64.25
2019-03-29T21:34:25.761Z,64.38
2019-03-29T21:36:55.712Z,64.53
2019-03-29T21:39:25.690Z,64.68
2019-03-29T21:41:55.634Z,64.73
2019-03-29T21:44:25.660Z,64.83
2019-03-29T21:47:14.478Z,65.00
2019-03-29T21:49:54.873Z,65.11
2019-03-29T21:52:24.955Z,65.28
2019-03-29T21:54:54.954Z,65.40
2019-03-29T21:57:24.943Z,65.58
2019-03-29T21:59:54.877Z,65.68
2019-03-29T22:02:24.813Z,65.78
2019-03-29T22:04:54.832Z,65.97
2019-03-29T22:07:24.775Z,66.20
2019-03-29T22:09:54.686Z,66.50
2019-03-29T22:12:24.625Z,66.71
2019-03-29T22:14:54.566Z,67.00
2019-03-29T22:17:24.507Z,67.29
2019-03-29T22:19:54.478Z,67.58
2019-03-29T22:22:24.447Z,67.93
2019-03-29T22:24:54.395Z,68.21
2019-03-29T22:27:24.546Z,68.60
2019-03-29T22:29:54.629Z,68.81
2019-03-29T22:32:24.585Z,69.05
2019-03-29T22:34:54.629Z,69.25
2019-03-29T22:37:24.626Z,69.44
2019-03-29T22:39:54.583Z,69.65
2019-03-29T22:42:24.532Z,69.73
2019-03-29T22:44:55.127Z,69.87
2019-03-29T22:47:25.155Z,70.03
2019-03-29T22:49:55.115Z,70.24
2019-03-29T22:52:36.139Z,70.43
2019-03-29T22:55:09.242Z,70.58
2019-03-29T22:57:39.296Z,70.76
2019-03-29T23:00:36.704Z,70.86
2019-03-29T23:03:18.160Z,71.14
2019-03-29T23:05:48.172Z,71.37
2019-03-29T23:08:18.536Z,71.56
2019-03-29T23:10:48.633Z,71.70
2019-03-29T23:13:18.787Z,71.74
2019-03-29T23:15:48.744Z,71.94
2019-03-29T23:18:21.325Z,72.01
2019-03-29T23:20:51.319Z,72.11
2019-03-29T23:23:21.286Z,72.31
2019-03-29T23:28:40.233Z,72.79
2019-03-29T23:31:10.181Z,72.94
2019-03-29T23:33:40.097Z,72.97
2019-03-29T23:36:10.116Z,73.17
2019-03-29T23:38:40.044Z,73.27
2019-03-29T23:41:09.964Z,73.40
2019-03-29T23:43:39.932Z,73.50
2019-03-29T23:46:09.885Z,73.69
2019-03-29T23:48:39.867Z,73.86
2019-03-29T23:51:09.892Z,74.13
2019-03-29T23:56:42.426Z,74.40
2019-03-29T23:59:12.410Z,74.42
